Dickert, Alabama
Current Conditions -  °F | °C
As of 7:35 AM on Friday 19 Dec 2014 (Local Time) from KLGC Reporting Station
Clear Clear  
Wind Chill: 39°   Ceiling: Unl
Heat Index: 39°   Visibility: 10mi
Dew Point: 37°   Wind: 0mph
Humidity: 95%   Direction: NA
Pressure: 30.18"   Gusts: NA
Location:  33.1661°N, 85.5111°W
Report Text: KLGC 191335Z AUTO 00000KT 10SM CLR 04/03 A3018 RMK AO2 T00370029
Loading
Personal Weather Stations






























Interactive Weather Map New forecast layout! Learn more

10-Day Weather Forecast

Advertisements
Track Severe Weather on mobile